Terminal Aerodrome Forecast
Issued by NWS

Current Version | Previous Version | Graphics & Text | Print | Product List | Glossary Off
Versions: 1 2 3 4 5 6 7 8 9 10 11 12 13 14 15 16 17 18 19 20 21 22

000
FTUS41 KRNK 172321
TAFLWB
TAF
KLWB 172321Z 1800/1824 00000KT P6SM SKC
      TEMPO 1810/1812 1/2SM FG
     FM181400 16003KT P6SM SCT250=

USA.gov is the U.S. government's official web portal to all federal, state and local government web resources and services.